sensor_id;sensor_type;location;lat;lon;timestamp;pressure;altitude;pressure_sealevel;temperature;humidity
28626;BME280;18905;42.668;23.364;2024-01-30T00:01:01;97065.91;;;-0.67;59.36
28626;BME280;18905;42.668;23.364;2024-01-30T00:03:27;97058.91;;;-0.65;59.51
28626;BME280;18905;42.668;23.364;2024-01-30T00:05:52;97068.19;;;-0.43;58.52
28626;BME280;18905;42.668;23.364;2024-01-30T00:08:18;97079.41;;;-0.37;58.70
28626;BME280;18905;42.668;23.364;2024-01-30T00:10:43;97071.63;;;-0.36;58.74
28626;BME280;18905;42.668;23.364;2024-01-30T00:13:09;97082.47;;;-0.27;57.91
28626;BME280;18905;42.668;23.364;2024-01-30T00:15:34;97067.44;;;-0.29;58.21
28626;BME280;18905;42.668;23.364;2024-01-30T00:18:00;97074.28;;;-0.66;59.17
28626;BME280;18905;42.668;23.364;2024-01-30T00:20:25;97084.28;;;-0.50;59.38
28626;BME280;18905;42.668;23.364;2024-01-30T00:22:50;97073.72;;;-0.39;58.32
28626;BME280;18905;42.668;23.364;2024-01-30T00:25:16;97078.03;;;-0.25;58.29
28626;BME280;18905;42.668;23.364;2024-01-30T00:27:41;97080.19;;;-0.22;58.39
28626;BME280;18905;42.668;23.364;2024-01-30T00:30:07;97086.75;;;-0.13;57.93
28626;BME280;18905;42.668;23.364;2024-01-30T00:32:32;97085.81;;;-0.12;58.19
28626;BME280;18905;42.668;23.364;2024-01-30T00:34:58;97086.16;;;-0.01;57.54
28626;BME280;18905;42.668;23.364;2024-01-30T00:37:23;97067.53;;;-0.08;57.46
28626;BME280;18905;42.668;23.364;2024-01-30T00:39:48;97089.38;;;0.08;57.68
28626;BME280;18905;42.668;23.364;2024-01-30T00:42:14;97091.56;;;0.11;57.52
28626;BME280;18905;42.668;23.364;2024-01-30T00:44:40;97092.78;;;0.15;57.40
28626;BME280;18905;42.668;23.364;2024-01-30T00:47:06;97052.34;;;-0.08;57.42
28626;BME280;18905;42.668;23.364;2024-01-30T00:49:31;97088.34;;;0.17;56.78
28626;BME280;18905;42.668;23.364;2024-01-30T00:51:57;97072.97;;;0.04;56.60
28626;BME280;18905;42.668;23.364;2024-01-30T00:54:22;97086.59;;;0.18;56.97
28626;BME280;18905;42.668;23.364;2024-01-30T00:56:47;97082.75;;;0.22;56.16
28626;BME280;18905;42.668;23.364;2024-01-30T00:59:13;97091.13;;;0.22;56.66
28626;BME280;18905;42.668;23.364;2024-01-30T01:01:38;97079.75;;;0.18;56.62
28626;BME280;18905;42.668;23.364;2024-01-30T01:04:03;97062.47;;;0.07;57.20
28626;BME280;18905;42.668;23.364;2024-01-30T01:06:29;97076.59;;;0.16;56.72
28626;BME280;18905;42.668;23.364;2024-01-30T01:08:54;97074.88;;;0.17;57.85
28626;BME280;18905;42.668;23.364;2024-01-30T01:11:19;97067.53;;;0.07;57.64
28626;BME280;18905;42.668;23.364;2024-01-30T01:13:45;97063.16;;;0.01;57.75
28626;BME280;18905;42.668;23.364;2024-01-30T01:16:10;97083.25;;;0.17;57.65
28626;BME280;18905;42.668;23.364;2024-01-30T01:18:36;97082.28;;;0.18;57.34
28626;BME280;18905;42.668;23.364;2024-01-30T01:21:01;97078.63;;;0.06;57.43
28626;BME280;18905;42.668;23.364;2024-01-30T01:23:26;97090.19;;;0.09;57.67
28626;BME280;18905;42.668;23.364;2024-01-30T01:25:52;97089.13;;;0.03;57.58
28626;BME280;18905;42.668;23.364;2024-01-30T01:28:17;97078.72;;;-0.02;58.53
28626;BME280;18905;42.668;23.364;2024-01-30T01:30:42;97080.31;;;-0.01;58.17
28626;BME280;18905;42.668;23.364;2024-01-30T01:33:08;97071.47;;;-0.05;58.68
28626;BME280;18905;42.668;23.364;2024-01-30T01:35:34;97062.66;;;-0.09;58.44
28626;BME280;18905;42.668;23.364;2024-01-30T01:38:00;97090.53;;;0.06;58.79
28626;BME280;18905;42.668;23.364;2024-01-30T01:40:26;97078.03;;;0.04;58.45
28626;BME280;18905;42.668;23.364;2024-01-30T01:42:54;97066.56;;;-0.07;58.29
28626;BME280;18905;42.668;23.364;2024-01-30T01:45:20;97081.97;;;0.07;58.28
28626;BME280;18905;42.668;23.364;2024-01-30T01:47:48;97085.88;;;0.09;57.90
28626;BME280;18905;42.668;23.364;2024-01-30T01:50:15;97055.91;;;-0.02;57.95
28626;BME280;18905;42.668;23.364;2024-01-30T01:52:44;97071.38;;;0.03;58.11
28626;BME280;18905;42.668;23.364;2024-01-30T01:55:12;97075.66;;;0.03;57.92
28626;BME280;18905;42.668;23.364;2024-01-30T01:57:38;97090.94;;;0.09;57.23
28626;BME280;18905;42.668;23.364;2024-01-30T02:00:05;97086.84;;;0.08;57.61
28626;BME280;18905;42.668;23.364;2024-01-30T02:02:30;97087.03;;;0.07;58.03
28626;BME280;18905;42.668;23.364;2024-01-30T02:04:59;97095.78;;;0.04;57.83
28626;BME280;18905;42.668;23.364;2024-01-30T02:07:25;97092.09;;;0.07;58.32
28626;BME280;18905;42.668;23.364;2024-01-30T02:09:50;97069.28;;;-0.08;58.75
28626;BME280;18905;42.668;23.364;2024-01-30T02:12:15;97073.56;;;-0.09;58.37
28626;BME280;18905;42.668;23.364;2024-01-30T02:14:48;97094.28;;;0.10;57.72
28626;BME280;18905;42.668;23.364;2024-01-30T02:17:15;97086.16;;;-0.01;58.48
28626;BME280;18905;42.668;23.364;2024-01-30T02:19:40;97081.00;;;-0.07;58.40
28626;BME280;18905;42.668;23.364;2024-01-30T02:22:06;97093.69;;;-0.07;57.93
28626;BME280;18905;42.668;23.364;2024-01-30T02:24:32;97095.38;;;-0.37;58.50
28626;BME280;18905;42.668;23.364;2024-01-30T02:26:58;97078.69;;;-0.31;57.77
28626;BME280;18905;42.668;23.364;2024-01-30T02:29:23;97046.13;;;-0.49;58.01
28626;BME280;18905;42.668;23.364;2024-01-30T02:31:48;97085.97;;;-0.28;59.22
28626;BME280;18905;42.668;23.364;2024-01-30T02:34:14;97096.38;;;-0.23;57.53
28626;BME280;18905;42.668;23.364;2024-01-30T02:36:43;97082.47;;;-0.27;58.06
28626;BME280;18905;42.668;23.364;2024-01-30T02:39:09;97090.78;;;-0.19;57.95
28626;BME280;18905;42.668;23.364;2024-01-30T02:41:35;97091.56;;;-0.18;57.34
28626;BME280;18905;42.668;23.364;2024-01-30T02:44:00;97089.47;;;-0.15;57.43
28626;BME280;18905;42.668;23.364;2024-01-30T02:46:26;97083.50;;;-0.22;56.57
28626;BME280;18905;42.668;23.364;2024-01-30T02:48:51;97086.50;;;-0.18;56.90
28626;BME280;18905;42.668;23.364;2024-01-30T02:51:17;97071.09;;;-0.31;56.85
28626;BME280;18905;42.668;23.364;2024-01-30T02:53:42;97076.78;;;-0.29;57.43
28626;BME280;18905;42.668;23.364;2024-01-30T02:56:07;97086.22;;;-0.23;57.32
28626;BME280;18905;42.668;23.364;2024-01-30T02:58:35;97090.41;;;-0.16;57.34
28626;BME280;18905;42.668;23.364;2024-01-30T03:01:01;97087.53;;;-0.13;57.19
28626;BME280;18905;42.668;23.364;2024-01-30T03:03:27;97084.50;;;-0.08;56.25
28626;BME280;18905;42.668;23.364;2024-01-30T03:05:52;97085.88;;;-0.06;56.24
28626;BME280;18905;42.668;23.364;2024-01-30T03:08:17;97080.63;;;-0.04;56.79
28626;BME280;18905;42.668;23.364;2024-01-30T03:10:43;97073.66;;;-0.02;57.33
28626;BME280;18905;42.668;23.364;2024-01-30T03:13:08;97068.84;;;0.03;56.26
28626;BME280;18905;42.668;23.364;2024-01-30T03:15:33;97074.88;;;0.02;55.88
28626;BME280;18905;42.668;23.364;2024-01-30T03:17:59;97079.44;;;0.07;55.73
28626;BME280;18905;42.668;23.364;2024-01-30T03:20:24;97087.78;;;0.07;55.89
28626;BME280;18905;42.668;23.364;2024-01-30T03:22:49;97075.66;;;0.03;55.75
28626;BME280;18905;42.668;23.364;2024-01-30T03:25:15;97086.41;;;0.05;56.18
28626;BME280;18905;42.668;23.364;2024-01-30T03:27:40;97081.78;;;-0.21;56.17
28626;BME280;18905;42.668;23.364;2024-01-30T03:30:06;97082.72;;;-0.22;56.06
28626;BME280;18905;42.668;23.364;2024-01-30T03:32:32;97072.44;;;-0.21;56.88
28626;BME280;18905;42.668;23.364;2024-01-30T03:34:57;97053.03;;;-0.28;57.48
28626;BME280;18905;42.668;23.364;2024-01-30T03:37:23;97055.47;;;-0.20;57.17
28626;BME280;18905;42.668;23.364;2024-01-30T03:39:48;97058.53;;;-0.10;56.82
28626;BME280;18905;42.668;23.364;2024-01-30T03:42:14;97072.59;;;0.07;56.47
28626;BME280;18905;42.668;23.364;2024-01-30T03:44:39;97067.19;;;0.10;56.08
28626;BME280;18905;42.668;23.364;2024-01-30T03:47:05;97062.13;;;0.10;56.39
28626;BME280;18905;42.668;23.364;2024-01-30T03:49:30;97074.00;;;0.24;55.09
28626;BME280;18905;42.668;23.364;2024-01-30T03:51:56;97069.53;;;0.26;56.41
28626;BME280;18905;42.668;23.364;2024-01-30T03:54:21;97050.50;;;0.16;57.11
28626;BME280;18905;42.668;23.364;2024-01-30T03:56:46;97066.47;;;0.31;56.46
28626;BME280;18905;42.668;23.364;2024-01-30T03:59:12;97064.72;;;0.31;56.95
28626;BME280;18905;42.668;23.364;2024-01-30T04:01:37;97053.13;;;0.22;57.04
28626;BME280;18905;42.668;23.364;2024-01-30T04:04:03;97071.34;;;0.32;55.98
28626;BME280;18905;42.668;23.364;2024-01-30T04:06:28;97063.41;;;0.35;56.07
28626;BME280;18905;42.668;23.364;2024-01-30T04:08:53;97014.56;;;0.12;55.66
28626;BME280;18905;42.668;23.364;2024-01-30T04:11:19;97059.63;;;0.46;55.41
28626;BME280;18905;42.668;23.364;2024-01-30T04:13:47;97063.47;;;0.42;55.18
28626;BME280;18905;42.668;23.364;2024-01-30T04:16:22;97052.75;;;0.25;56.14
28626;BME280;18905;42.668;23.364;2024-01-30T04:18:48;97048.47;;;0.26;56.12
28626;BME280;18905;42.668;23.364;2024-01-30T04:21:13;97036.66;;;0.18;55.92
28626;BME280;18905;42.668;23.364;2024-01-30T04:23:40;97068.41;;;0.14;55.20
28626;BME280;18905;42.668;23.364;2024-01-30T04:26:06;97060.63;;;0.16;54.99
28626;BME280;18905;42.668;23.364;2024-01-30T04:28:31;97060.53;;;0.09;54.99
28626;BME280;18905;42.668;23.364;2024-01-30T04:30:56;97064.13;;;-0.15;55.58
28626;BME280;18905;42.668;23.364;2024-01-30T04:33:22;97068.94;;;-0.34;57.22
28626;BME280;18905;42.668;23.364;2024-01-30T04:35:47;97068.56;;;-0.31;57.44
28626;BME280;18905;42.668;23.364;2024-01-30T04:38:13;97061.38;;;-0.57;57.76
28626;BME280;18905;42.668;23.364;2024-01-30T04:40:39;97072.97;;;-0.62;58.02
28626;BME280;18905;42.668;23.364;2024-01-30T04:43:05;97081.59;;;-0.72;58.31
28626;BME280;18905;42.668;23.364;2024-01-30T04:45:30;97049.50;;;-0.94;58.33
28626;BME280;18905;42.668;23.364;2024-01-30T04:47:56;97059.03;;;-0.96;57.95
28626;BME280;18905;42.668;23.364;2024-01-30T04:50:21;97082.28;;;-0.78;58.23
28626;BME280;18905;42.668;23.364;2024-01-30T04:52:47;97084.81;;;-0.78;58.35
28626;BME280;18905;42.668;23.364;2024-01-30T04:55:12;97083.84;;;-0.77;58.21
28626;BME280;18905;42.668;23.364;2024-01-30T04:57:37;97076.34;;;-0.70;58.53
28626;BME280;18905;42.668;23.364;2024-01-30T05:00:03;97089.66;;;-0.53;58.08
28626;BME280;18905;42.668;23.364;2024-01-30T05:02:29;97076.88;;;-0.08;82.16
28626;BME280;18905;42.668;23.364;2024-01-30T05:04:55;97100.97;;;0.61;76.12
28626;BME280;18905;42.668;23.364;2024-01-30T05:07:20;97095.75;;;1.26;64.89
28626;BME280;18905;42.668;23.364;2024-01-30T05:09:45;97095.97;;;1.80;57.29
28626;BME280;18905;42.668;23.364;2024-01-30T05:12:11;97099.28;;;1.53;53.04
28626;BME280;18905;42.668;23.364;2024-01-30T05:14:36;97096.09;;;1.23;50.70
28626;BME280;18905;42.668;23.364;2024-01-30T05:17:01;97088.94;;;0.69;51.45
28626;BME280;18905;42.668;23.364;2024-01-30T05:19:28;97080.56;;;0.54;51.41
28626;BME280;18905;42.668;23.364;2024-01-30T05:21:53;97104.44;;;0.75;58.93
28626;BME280;18905;42.668;23.364;2024-01-30T05:24:19;97099.72;;;0.57;52.62
28626;BME280;18905;42.668;23.364;2024-01-30T05:26:44;97086.13;;;0.29;52.23
28626;BME280;18905;42.668;23.364;2024-01-30T05:29:09;97104.22;;;0.40;53.03
28626;BME280;18905;42.668;23.364;2024-01-30T05:31:35;97102.38;;;0.49;52.28
28626;BME280;18905;42.668;23.364;2024-01-30T05:34:00;97103.50;;;0.46;52.41
28626;BME280;18905;42.668;23.364;2024-01-30T05:36:25;97101.88;;;0.24;53.04
28626;BME280;18905;42.668;23.364;2024-01-30T05:38:51;97104.69;;;0.15;52.68
28626;BME280;18905;42.668;23.364;2024-01-30T05:41:16;97104.59;;;0.08;53.18
28626;BME280;18905;42.668;23.364;2024-01-30T05:43:41;97105.38;;;0.09;52.97
28626;BME280;18905;42.668;23.364;2024-01-30T05:46:06;97107.84;;;0.02;53.35
28626;BME280;18905;42.668;23.364;2024-01-30T05:48:32;97106.75;;;-0.04;53.64
28626;BME280;18905;42.668;23.364;2024-01-30T05:50:58;97106.25;;;-0.14;54.79
28626;BME280;18905;42.668;23.364;2024-01-30T05:53:24;97101.06;;;-0.20;55.24
28626;BME280;18905;42.668;23.364;2024-01-30T05:55:50;97107.91;;;-0.21;54.54
28626;BME280;18905;42.668;23.364;2024-01-30T05:58:15;97107.25;;;-0.37;55.24
28626;BME280;18905;42.668;23.364;2024-01-30T06:00:40;97096.19;;;-0.36;56.25
28626;BME280;18905;42.668;23.364;2024-01-30T06:03:06;97104.63;;;-0.44;56.17
28626;BME280;18905;42.668;23.364;2024-01-30T06:05:31;97079.50;;;-0.45;55.78
28626;BME280;18905;42.668;23.364;2024-01-30T06:07:56;97089.53;;;-0.37;55.20
28626;BME280;18905;42.668;23.364;2024-01-30T06:10:22;97106.47;;;-0.38;55.64
28626;BME280;18905;42.668;23.364;2024-01-30T06:12:47;97104.09;;;-0.39;55.66
28626;BME280;18905;42.668;23.364;2024-01-30T06:15:13;97101.03;;;-0.49;54.97
28626;BME280;18905;42.668;23.364;2024-01-30T06:17:39;97107.44;;;-0.39;54.79
28626;BME280;18905;42.668;23.364;2024-01-30T06:20:05;97113.72;;;-0.20;54.57
28626;BME280;18905;42.668;23.364;2024-01-30T06:22:30;97108.34;;;-0.03;53.32
28626;BME280;18905;42.668;23.364;2024-01-30T06:24:56;97093.25;;;0.04;53.94
28626;BME280;18905;42.668;23.364;2024-01-30T06:27:21;97113.13;;;0.36;53.46
28626;BME280;18905;42.668;23.364;2024-01-30T06:29:46;97114.25;;;0.63;51.96
28626;BME280;18905;42.668;23.364;2024-01-30T06:32:12;97116.72;;;1.13;51.18
28626;BME280;18905;42.668;23.364;2024-01-30T06:34:37;97111.72;;;2.31;49.15
28626;BME280;18905;42.668;23.364;2024-01-30T06:37:04;97112.78;;;3.62;47.43
28626;BME280;18905;42.668;23.364;2024-01-30T06:39:29;97092.44;;;4.52;44.16
28626;BME280;18905;42.668;23.364;2024-01-30T06:41:56;97116.16;;;6.09;41.36
28626;BME280;18905;42.668;23.364;2024-01-30T06:44:22;97117.16;;;7.21;38.81
28626;BME280;18905;42.668;23.364;2024-01-30T06:46:47;97105.44;;;7.67;35.91
28626;BME280;18905;42.668;23.364;2024-01-30T06:49:12;97117.84;;;8.39;35.89
28626;BME280;18905;42.668;23.364;2024-01-30T06:51:37;97116.78;;;9.65;34.27
28626;BME280;18905;42.668;23.364;2024-01-30T06:54:03;97121.34;;;10.72;29.35
28626;BME280;18905;42.668;23.364;2024-01-30T06:56:28;97126.22;;;11.44;27.73
28626;BME280;18905;42.668;23.364;2024-01-30T06:58:53;97126.00;;;11.77;26.62
28626;BME280;18905;42.668;23.364;2024-01-30T07:01:19;97129.47;;;11.34;27.24
28626;BME280;18905;42.668;23.364;2024-01-30T07:03:44;97134.94;;;12.01;25.94
28626;BME280;18905;42.668;23.364;2024-01-30T07:06:09;97129.31;;;10.93;27.17
28626;BME280;18905;42.668;23.364;2024-01-30T07:08:38;97129.75;;;11.33;26.29
28626;BME280;18905;42.668;23.364;2024-01-30T07:11:06;97125.91;;;10.65;27.73
28626;BME280;18905;42.668;23.364;2024-01-30T07:13:31;97134.53;;;11.51;26.94
28626;BME280;18905;42.668;23.364;2024-01-30T07:15:57;97112.34;;;11.82;25.41
28626;BME280;18905;42.668;23.364;2024-01-30T07:18:22;97131.22;;;12.24;25.79
28626;BME280;18905;42.668;23.364;2024-01-30T07:20:47;97127.41;;;12.37;24.66
28626;BME280;18905;42.668;23.364;2024-01-30T07:23:14;97125.94;;;11.72;24.45
28626;BME280;18905;42.668;23.364;2024-01-30T07:25:42;97124.56;;;11.91;23.69
28626;BME280;18905;42.668;23.364;2024-01-30T07:28:08;97132.69;;;11.46;25.23
28626;BME280;18905;42.668;23.364;2024-01-30T07:30:37;97126.00;;;12.19;24.46
28626;BME280;18905;42.668;23.364;2024-01-30T07:33:02;97121.16;;;12.84;22.41
28626;BME280;18905;42.668;23.364;2024-01-30T07:35:27;97124.38;;;12.50;22.65
28626;BME280;18905;42.668;23.364;2024-01-30T07:37:53;97119.81;;;12.20;23.08
28626;BME280;18905;42.668;23.364;2024-01-30T07:40:18;97126.13;;;11.34;24.37
28626;BME280;18905;42.668;23.364;2024-01-30T07:42:43;97127.09;;;11.28;25.60
28626;BME280;18905;42.668;23.364;2024-01-30T07:45:09;97125.06;;;11.03;24.35
28626;BME280;18905;42.668;23.364;2024-01-30T07:47:34;97120.25;;;10.25;25.52
28626;BME280;18905;42.668;23.364;2024-01-30T07:49:59;97124.16;;;10.49;25.20
28626;BME280;18905;42.668;23.364;2024-01-30T07:52:24;97121.75;;;9.55;26.29
28626;BME280;18905;42.668;23.364;2024-01-30T07:54:50;97125.34;;;8.81;27.52
28626;BME280;18905;42.668;23.364;2024-01-30T07:57:15;97123.94;;;9.79;27.19
28626;BME280;18905;42.668;23.364;2024-01-30T07:59:42;97127.78;;;9.60;27.26
28626;BME280;18905;42.668;23.364;2024-01-30T08:02:07;97121.34;;;9.79;26.66
28626;BME280;18905;42.668;23.364;2024-01-30T08:04:33;97096.28;;;8.52;27.79
28626;BME280;18905;42.668;23.364;2024-01-30T08:06:58;97105.56;;;8.07;29.37
28626;BME280;18905;42.668;23.364;2024-01-30T08:09:23;97115.41;;;8.84;28.89
28626;BME280;18905;42.668;23.364;2024-01-30T08:11:48;97125.28;;;9.20;27.93
28626;BME280;18905;42.668;23.364;2024-01-30T08:14:14;97111.75;;;9.91;26.51
28626;BME280;18905;42.668;23.364;2024-01-30T08:16:39;97118.09;;;9.06;28.55
28626;BME280;18905;42.668;23.364;2024-01-30T08:19:04;97111.00;;;8.85;28.94
28626;BME280;18905;42.668;23.364;2024-01-30T08:21:30;97124.44;;;9.15;28.17
28626;BME280;18905;42.668;23.364;2024-01-30T08:23:55;97115.41;;;8.84;27.71
28626;BME280;18905;42.668;23.364;2024-01-30T08:26:20;97115.72;;;8.25;29.03
28626;BME280;18905;42.668;23.364;2024-01-30T08:28:45;97106.22;;;7.03;30.77
28626;BME280;18905;42.668;23.364;2024-01-30T08:31:10;97109.34;;;6.39;32.95
28626;BME280;18905;42.668;23.364;2024-01-30T08:33:37;97111.13;;;6.57;32.33
28626;BME280;18905;42.668;23.364;2024-01-30T08:36:02;97117.41;;;6.90;32.24
28626;BME280;18905;42.668;23.364;2024-01-30T08:38:27;97122.78;;;6.71;31.88
28626;BME280;18905;42.668;23.364;2024-01-30T08:40:53;97119.16;;;6.24;32.84
28626;BME280;18905;42.668;23.364;2024-01-30T08:43:19;97118.19;;;5.75;34.26
28626;BME280;18905;42.668;23.364;2024-01-30T08:45:44;97125.03;;;5.26;34.92
28626;BME280;18905;42.668;23.364;2024-01-30T08:48:09;97127.88;;;4.73;36.26
28626;BME280;18905;42.668;23.364;2024-01-30T08:50:35;97123.47;;;4.49;37.09
28626;BME280;18905;42.668;23.364;2024-01-30T08:53:00;97130.50;;;5.36;35.60
28626;BME280;18905;42.668;23.364;2024-01-30T08:55:25;97130.41;;;5.49;34.83
28626;BME280;18905;42.668;23.364;2024-01-30T08:57:50;97134.47;;;4.50;35.79
28626;BME280;18905;42.668;23.364;2024-01-30T09:00:17;97134.78;;;3.63;38.26
28626;BME280;18905;42.668;23.364;2024-01-30T09:02:42;97141.75;;;3.15;39.22
28626;BME280;18905;42.668;23.364;2024-01-30T09:05:07;97137.38;;;2.83;39.91
28626;BME280;18905;42.668;23.364;2024-01-30T09:07:33;97126.63;;;2.40;41.29
28626;BME280;18905;42.668;23.364;2024-01-30T09:09:58;97137.00;;;2.04;41.70
28626;BME280;18905;42.668;23.364;2024-01-30T09:12:23;97125.69;;;2.48;41.25
28626;BME280;18905;42.668;23.364;2024-01-30T09:14:48;97129.38;;;2.99;40.62
28626;BME280;18905;42.668;23.364;2024-01-30T09:17:14;97119.78;;;2.41;41.72
28626;BME280;18905;42.668;23.364;2024-01-30T09:19:39;97125.97;;;2.66;42.11
28626;BME280;18905;42.668;23.364;2024-01-30T09:22:05;97123.03;;;2.69;41.66
28626;BME280;18905;42.668;23.364;2024-01-30T09:24:30;97115.16;;;3.37;40.94
28626;BME280;18905;42.668;23.364;2024-01-30T09:26:55;97116.25;;;4.33;38.51
28626;BME280;18905;42.668;23.364;2024-01-30T09:29:21;97113.50;;;4.28;37.58
28626;BME280;18905;42.668;23.364;2024-01-30T09:31:46;97112.13;;;4.39;36.69
28626;BME280;18905;42.668;23.364;2024-01-30T09:34:12;97113.63;;;4.46;36.26
28626;BME280;18905;42.668;23.364;2024-01-30T09:36:37;97113.59;;;4.66;36.90
28626;BME280;18905;42.668;23.364;2024-01-30T09:39:02;97116.59;;;4.50;38.92
28626;BME280;18905;42.668;23.364;2024-01-30T09:41:29;97105.50;;;4.05;40.84
28626;BME280;18905;42.668;23.364;2024-01-30T09:43:54;97101.78;;;4.01;40.95
28626;BME280;18905;42.668;23.364;2024-01-30T09:46:22;97097.41;;;4.27;39.76
28626;BME280;18905;42.668;23.364;2024-01-30T09:48:51;97090.66;;;3.62;40.98
28626;BME280;18905;42.668;23.364;2024-01-30T09:51:17;97093.94;;;3.96;41.00
28626;BME280;18905;42.668;23.364;2024-01-30T09:53:43;97082.41;;;3.74;41.31
28626;BME280;18905;42.668;23.364;2024-01-30T09:56:09;97098.66;;;3.99;40.58
28626;BME280;18905;42.668;23.364;2024-01-30T09:58:34;97094.78;;;3.50;41.22
28626;BME280;18905;42.668;23.364;2024-01-30T10:01:00;97088.50;;;3.33;41.91
28626;BME280;18905;42.668;23.364;2024-01-30T10:03:25;97096.06;;;2.94;43.02
28626;BME280;18905;42.668;23.364;2024-01-30T10:05:51;97093.50;;;2.81;42.71
28626;BME280;18905;42.668;23.364;2024-01-30T10:08:17;97092.69;;;2.80;43.33
28626;BME280;18905;42.668;23.364;2024-01-30T10:10:45;97091.50;;;2.63;43.98
28626;BME280;18905;42.668;23.364;2024-01-30T10:13:10;97086.22;;;2.24;44.86
28626;BME280;18905;42.668;23.364;2024-01-30T10:15:36;97076.75;;;1.71;46.25
28626;BME280;18905;42.668;23.364;2024-01-30T10:18:03;97085.75;;;1.73;46.41
28626;BME280;18905;42.668;23.364;2024-01-30T10:20:31;97094.22;;;1.80;46.14
28626;BME280;18905;42.668;23.364;2024-01-30T10:22:57;97097.28;;;1.69;46.88
28626;BME280;18905;42.668;23.364;2024-01-30T10:25:22;97087.41;;;1.32;47.01
28626;BME280;18905;42.668;23.364;2024-01-30T10:27:51;97088.03;;;1.40;48.39
28626;BME280;18905;42.668;23.364;2024-01-30T10:30:17;97086.50;;;1.39;47.25
28626;BME280;18905;42.668;23.364;2024-01-30T10:32:42;97081.09;;;1.49;47.43
28626;BME280;18905;42.668;23.364;2024-01-30T10:35:07;97081.81;;;1.98;46.11
28626;BME280;18905;42.668;23.364;2024-01-30T10:37:33;97083.53;;;2.26;45.86
28626;BME280;18905;42.668;23.364;2024-01-30T10:40:02;97074.81;;;2.54;45.20
28626;BME280;18905;42.668;23.364;2024-01-30T10:42:28;97084.41;;;2.52;44.29
28626;BME280;18905;42.668;23.364;2024-01-30T10:44:57;97085.56;;;2.50;45.01
28626;BME280;18905;42.668;23.364;2024-01-30T10:47:28;97078.22;;;2.27;45.07
28626;BME280;18905;42.668;23.364;2024-01-30T10:49:54;97067.69;;;3.10;43.24
28626;BME280;18905;42.668;23.364;2024-01-30T10:52:20;97083.38;;;3.07;43.19
28626;BME280;18905;42.668;23.364;2024-01-30T10:54:45;97072.78;;;3.10;43.07
28626;BME280;18905;42.668;23.364;2024-01-30T10:57:14;97060.63;;;3.71;41.16
28626;BME280;18905;42.668;23.364;2024-01-30T10:59:41;97053.59;;;3.73;41.95
28626;BME280;18905;42.668;23.364;2024-01-30T11:02:07;97042.56;;;3.92;41.38
28626;BME280;18905;42.668;23.364;2024-01-30T11:04:41;97022.66;;;3.50;41.48
28626;BME280;18905;42.668;23.364;2024-01-30T11:09:51;97043.22;;;3.35;42.44
28626;BME280;18905;42.668;23.364;2024-01-30T11:12:22;97042.38;;;3.81;41.29
28626;BME280;18905;42.668;23.364;2024-01-30T11:14:48;97051.19;;;3.98;41.09
28626;BME280;18905;42.668;23.364;2024-01-30T11:17:13;97029.94;;;4.17;40.66
28626;BME280;18905;42.668;23.364;2024-01-30T11:19:38;97026.47;;;3.92;40.50
28626;BME280;18905;42.668;23.364;2024-01-30T11:22:06;97028.13;;;3.53;41.31
28626;BME280;18905;42.668;23.364;2024-01-30T11:24:40;97038.69;;;3.63;41.73
28626;BME280;18905;42.668;23.364;2024-01-30T11:27:09;97043.56;;;3.85;41.28
28626;BME280;18905;42.668;23.364;2024-01-30T11:29:37;97039.97;;;4.05;40.99
28626;BME280;18905;42.668;23.364;2024-01-30T11:32:03;97037.78;;;4.15;41.02
28626;BME280;18905;42.668;23.364;2024-01-30T11:34:28;97048.34;;;4.25;40.41
28626;BME280;18905;42.668;23.364;2024-01-30T11:37:09;97037.44;;;3.99;40.78
28626;BME280;18905;42.668;23.364;2024-01-30T11:39:35;97037.16;;;4.26;39.82
28626;BME280;18905;42.668;23.364;2024-01-30T11:42:03;97037.13;;;4.33;39.92
28626;BME280;18905;42.668;23.364;2024-01-30T11:44:30;97023.28;;;4.16;40.36
28626;BME280;18905;42.668;23.364;2024-01-30T11:46:55;97026.00;;;4.14;39.93
28626;BME280;18905;42.668;23.364;2024-01-30T11:49:21;97043.34;;;4.44;40.42
28626;BME280;18905;42.668;23.364;2024-01-30T11:51:46;97012.41;;;4.33;39.20
28626;BME280;18905;42.668;23.364;2024-01-30T11:54:14;97030.94;;;4.03;41.06
28626;BME280;18905;42.668;23.364;2024-01-30T11:56:40;97018.19;;;4.03;40.72
28626;BME280;18905;42.668;23.364;2024-01-30T11:59:06;97023.34;;;4.47;39.61
28626;BME280;18905;42.668;23.364;2024-01-30T12:01:31;96997.81;;;3.96;40.90
28626;BME280;18905;42.668;23.364;2024-01-30T12:04:00;97020.47;;;4.30;40.79
28626;BME280;18905;42.668;23.364;2024-01-30T12:06:26;97006.34;;;3.71;42.19
28626;BME280;18905;42.668;23.364;2024-01-30T12:09:00;97017.06;;;3.92;41.75
28626;BME280;18905;42.668;23.364;2024-01-30T12:11:26;96991.59;;;3.86;41.58
28626;BME280;18905;42.668;23.364;2024-01-30T12:13:52;96999.13;;;3.48;42.39
28626;BME280;18905;42.668;23.364;2024-01-30T12:16:18;96997.94;;;2.85;43.93
28626;BME280;18905;42.668;23.364;2024-01-30T12:18:44;96975.81;;;2.66;44.43
28626;BME280;18905;42.668;23.364;2024-01-30T12:21:09;96988.53;;;2.72;43.92
28626;BME280;18905;42.668;23.364;2024-01-30T12:23:35;96978.34;;;2.66;45.20
28626;BME280;18905;42.668;23.364;2024-01-30T12:26:01;96966.63;;;2.84;43.80
28626;BME280;18905;42.668;23.364;2024-01-30T12:28:27;96987.41;;;3.21;43.08
28626;BME280;18905;42.668;23.364;2024-01-30T12:30:56;96984.63;;;2.83;44.13
28626;BME280;18905;42.668;23.364;2024-01-30T12:33:26;96977.78;;;2.70;43.73
28626;BME280;18905;42.668;23.364;2024-01-30T12:35:52;96978.75;;;3.22;42.70
28626;BME280;18905;42.668;23.364;2024-01-30T12:38:18;96967.63;;;3.10;42.34
28626;BME280;18905;42.668;23.364;2024-01-30T12:40:43;96969.53;;;3.40;42.29
28626;BME280;18905;42.668;23.364;2024-01-30T12:43:10;96973.25;;;3.44;41.88
28626;BME280;18905;42.668;23.364;2024-01-30T12:45:36;96959.69;;;3.63;42.03
28626;BME280;18905;42.668;23.364;2024-01-30T12:48:01;96963.28;;;4.07;41.28
28626;BME280;18905;42.668;23.364;2024-01-30T12:50:27;96966.47;;;3.89;41.06
28626;BME280;18905;42.668;23.364;2024-01-30T12:52:52;96957.03;;;3.32;42.52